createdAt,value
2016-11-02T00:00:32.693Z,0
2016-11-02T00:05:37.793Z,0
2016-11-02T00:10:41.888Z,0
2016-11-02T00:15:46.329Z,0
2016-11-02T00:20:50.421Z,0
2016-11-02T00:25:54.850Z,0
2016-11-02T00:30:59.281Z,0
2016-11-02T00:36:03.386Z,0
2016-11-02T00:41:07.477Z,0
2016-11-02T00:46:11.573Z,0
2016-11-02T00:51:15.664Z,0
2016-11-02T00:56:19.766Z,0
2016-11-02T01:01:23.854Z,0
2016-11-02T01:06:27.954Z,0
2016-11-02T01:11:32.044Z,0
2016-11-02T01:16:36.138Z,0
2016-11-02T01:21:40.236Z,0
2016-11-02T01:26:44.333Z,0
2016-11-02T01:31:48.771Z,0
2016-11-02T01:36:53.200Z,0
2016-11-02T01:41:57.298Z,0
2016-11-02T01:47:01.412Z,0
2016-11-02T01:52:05.499Z,0
2016-11-02T01:57:09.592Z,0
2016-11-02T02:02:14.348Z,0
2016-11-02T02:07:18.773Z,0
2016-11-02T02:12:22.871Z,0
2016-11-02T02:17:26.972Z,0
2016-11-02T02:22:31.058Z,0
2016-11-02T02:27:35.495Z,0
2016-11-02T02:32:39.585Z,0
2016-11-02T02:37:44.012Z,0
2016-11-02T02:42:48.118Z,0
2016-11-02T02:47:52.543Z,0
2016-11-02T02:52:56.634Z,0
2016-11-02T02:58:00.722Z,0
2016-11-02T03:03:05.150Z,0
2016-11-02T03:08:09.246Z,0
2016-11-02T03:13:13.337Z,0
2016-11-02T03:18:17.432Z,0
2016-11-02T03:23:21.859Z,0
2016-11-02T03:28:25.956Z,0
2016-11-02T03:33:30.381Z,0
2016-11-02T03:38:34.810Z,0
2016-11-02T03:43:39.576Z,0
2016-11-02T03:48:44.003Z,0
2016-11-02T03:53:48.095Z,0
2016-11-02T03:58:52.532Z,0
2016-11-02T04:03:56.623Z,0
2016-11-02T04:09:01.054Z,0
2016-11-02T04:14:05.485Z,0
2016-11-02T04:19:09.578Z,0
2016-11-02T04:24:13.674Z,0
2016-11-02T04:29:18.101Z,0
2016-11-02T04:34:22.528Z,0
2016-11-02T04:39:26.958Z,0
2016-11-02T04:44:31.057Z,0
2016-11-02T04:49:35.483Z,0
2016-11-02T04:54:39.575Z,0
2016-11-02T04:59:44.013Z,0
2016-11-02T05:04:48.447Z,0
2016-11-02T05:09:53.229Z,0
2016-11-02T05:14:57.330Z,0
2016-11-02T05:20:01.656Z,0
2016-11-02T05:25:05.747Z,0
2016-11-02T05:30:09.837Z,0
2016-11-02T05:35:14.277Z,0
2016-11-02T05:40:18.377Z,0
2016-11-02T05:45:22.480Z,0
2016-11-02T05:50:26.571Z,0
2016-11-02T05:55:30.994Z,1
2016-11-02T06:00:35.474Z,1
2016-11-02T06:05:39.580Z,6
2016-11-02T06:10:44.007Z,6
2016-11-02T06:15:48.794Z,12
2016-11-02T06:20:52.887Z,10
2016-11-02T06:25:57.314Z,30
2016-11-02T06:31:01.753Z,40
2016-11-02T06:36:05.845Z,15
2016-11-02T06:41:10.604Z,14
2016-11-02T06:46:14.700Z,40
2016-11-02T06:51:19.139Z,138
2016-11-02T06:56:23.236Z,172
2016-11-02T07:01:27.658Z,112
2016-11-02T07:06:32.086Z,153
2016-11-02T07:11:36.186Z,214
2016-11-02T07:16:40.615Z,285
2016-11-02T07:21:45.050Z,609
2016-11-02T07:26:49.154Z,281
2016-11-02T07:31:53.247Z,358
2016-11-02T07:36:57.342Z,256
2016-11-02T07:42:01.784Z,240
2016-11-02T07:47:05.878Z,961
2016-11-02T07:52:10.301Z,600
2016-11-02T07:57:14.394Z,302
2016-11-02T08:02:18.491Z,216
2016-11-02T08:07:22.929Z,247
2016-11-02T08:12:27.359Z,274
2016-11-02T08:17:31.789Z,555
2016-11-02T08:22:36.224Z,331
2016-11-02T08:27:40.656Z,522
2016-11-02T08:32:44.760Z,1337
2016-11-02T08:37:49.868Z,1214
2016-11-02T08:42:54.969Z,592
2016-11-02T08:47:59.060Z,255
2016-11-02T08:53:03.154Z,213
2016-11-02T08:58:07.252Z,379
2016-11-02T09:03:11.686Z,334
2016-11-02T09:08:16.117Z,308
2016-11-02T09:13:20.543Z,465
2016-11-02T09:18:24.973Z,1846
2016-11-02T09:23:29.069Z,2090
2016-11-02T09:28:33.167Z,1292
2016-11-02T09:33:37.604Z,887
2016-11-02T09:38:42.036Z,1680
2016-11-02T09:43:46.137Z,2421
2016-11-02T09:48:50.232Z,422
2016-11-02T09:53:54.327Z,323
2016-11-02T09:58:58.420Z,211
2016-11-02T10:04:02.520Z,191
2016-11-02T10:09:06.617Z,332
2016-11-02T10:14:11.043Z,485
2016-11-02T10:19:15.143Z,1325
2016-11-02T10:24:19.249Z,2175
2016-11-02T10:29:23.343Z,1124
2016-11-02T10:34:27.433Z,502
2016-11-02T10:39:31.526Z,493
2016-11-02T10:44:36.958Z,1295
2016-11-02T10:49:41.726Z,1349
2016-11-02T10:54:45.821Z,473
2016-11-02T10:59:50.051Z,426
2016-11-02T11:04:54.485Z,773
2016-11-02T11:09:58.911Z,973
2016-11-02T11:15:03.017Z,869
2016-11-02T11:20:07.111Z,1119
2016-11-02T11:25:11.881Z,1123
2016-11-02T11:30:16.313Z,1630
2016-11-02T11:35:20.741Z,1662
2016-11-02T11:40:25.176Z,1005
2016-11-02T11:45:29.943Z,1472
2016-11-02T11:50:34.380Z,1651
2016-11-02T11:55:38.480Z,2105
2016-11-02T12:00:42.921Z,1928
2016-11-02T12:05:47.832Z,1088
2016-11-02T12:10:51.929Z,720
2016-11-02T12:15:56.033Z,2048
2016-11-02T12:21:00.123Z,1025
2016-11-02T12:26:04.563Z,235
2016-11-02T12:31:08.664Z,144
2016-11-02T12:36:13.090Z,111
2016-11-02T12:41:17.529Z,234
2016-11-02T12:46:21.965Z,356
2016-11-02T12:51:26.062Z,391
2016-11-02T12:56:30.157Z,361
2016-11-02T13:01:34.274Z,442
2016-11-02T13:06:39.055Z,688
2016-11-02T13:11:43.154Z,1382
2016-11-02T13:16:47.608Z,979
2016-11-02T13:21:52.416Z,1400
2016-11-02T13:26:56.508Z,1109
2016-11-02T13:32:01.613Z,998
2016-11-02T13:37:06.375Z,1266
2016-11-02T13:42:10.604Z,559
2016-11-02T13:47:14.797Z,936
2016-11-02T13:52:18.922Z,679
2016-11-02T13:57:23.707Z,879
2016-11-02T14:02:28.490Z,425
2016-11-02T14:07:33.260Z,404
2016-11-02T14:12:37.685Z,450
2016-11-02T14:17:42.153Z,394
2016-11-02T14:22:46.258Z,322
2016-11-02T14:27:50.721Z,264
2016-11-02T14:32:55.379Z,211
2016-11-02T14:37:59.367Z,234
2016-11-02T14:43:03.460Z,218
2016-11-02T14:48:07.555Z,216
2016-11-02T14:53:11.658Z,189
2016-11-02T14:58:15.760Z,185
2016-11-02T15:03:19.879Z,201
2016-11-02T15:08:24.313Z,183
2016-11-02T15:13:28.537Z,143
2016-11-02T15:18:32.673Z,126
2016-11-02T15:23:37.108Z,106
2016-11-02T15:28:41.885Z,86
2016-11-02T15:33:46.652Z,67
2016-11-02T15:38:50.990Z,48
2016-11-02T15:43:55.115Z,33
2016-11-02T15:48:59.208Z,20
2016-11-02T15:54:03.322Z,11
2016-11-02T15:59:07.750Z,5
2016-11-02T16:04:12.179Z,4
2016-11-02T16:09:16.607Z,1
2016-11-02T16:14:21.059Z,1
2016-11-02T16:19:25.192Z,0
2016-11-02T16:24:29.285Z,0
2016-11-02T16:29:33.373Z,0
2016-11-02T16:34:37.675Z,0
2016-11-02T16:39:41.782Z,0
2016-11-02T16:44:45.886Z,0
2016-11-02T16:49:50.313Z,0
2016-11-02T16:54:54.747Z,0
2016-11-02T16:59:58.866Z,0
2016-11-02T17:05:03.337Z,1
2016-11-02T17:10:07.436Z,1
2016-11-02T17:15:11.544Z,1
2016-11-02T17:20:15.878Z,1
2016-11-02T17:25:19.980Z,1
2016-11-02T17:30:24.074Z,1
2016-11-02T17:35:28.503Z,1
2016-11-02T17:40:32.600Z,1
2016-11-02T17:45:37.038Z,1
2016-11-02T17:50:41.558Z,1
2016-11-02T17:55:46.123Z,1
2016-11-02T18:00:50.207Z,2
2016-11-02T18:05:54.637Z,2
2016-11-02T18:10:59.064Z,2
2016-11-02T18:16:04.161Z,2
2016-11-02T18:21:08.593Z,2
2016-11-02T18:26:12.689Z,2
2016-11-02T18:31:17.112Z,2
2016-11-02T18:36:21.204Z,2
2016-11-02T18:41:25.294Z,2
2016-11-02T18:46:29.718Z,2
2016-11-02T18:51:33.810Z,2
2016-11-02T18:56:38.240Z,2
2016-11-02T19:01:42.344Z,2
2016-11-02T19:06:46.774Z,2
2016-11-02T19:11:50.869Z,0
2016-11-02T19:16:55.308Z,0
2016-11-02T19:21:59.743Z,0
2016-11-02T19:27:03.836Z,0
2016-11-02T19:32:08.602Z,0
2016-11-02T19:37:13.036Z,0
2016-11-02T19:42:17.133Z,0
2016-11-02T19:47:21.230Z,0
2016-11-02T19:52:25.999Z,0
2016-11-02T19:57:30.432Z,0
2016-11-02T20:02:34.529Z,0
2016-11-02T20:07:38.615Z,0
2016-11-02T20:12:42.976Z,0
2016-11-02T20:17:47.079Z,0
2016-11-02T20:22:51.517Z,0
2016-11-02T20:27:55.612Z,0
2016-11-02T20:33:00.038Z,0
2016-11-02T20:38:04.475Z,0
2016-11-02T20:43:08.562Z,0
2016-11-02T20:48:13.654Z,0
2016-11-02T20:53:18.078Z,0
2016-11-02T20:58:22.493Z,0
2016-11-02T21:03:26.590Z,0
2016-11-02T21:08:30.684Z,0
2016-11-02T21:13:35.110Z,0
2016-11-02T21:18:39.609Z,0
2016-11-02T21:23:44.037Z,0
2016-11-02T21:28:48.146Z,0
2016-11-02T21:33:52.249Z,0
2016-11-02T21:38:56.693Z,0
2016-11-02T21:44:01.120Z,0
2016-11-02T21:49:05.889Z,0
2016-11-02T21:54:10.652Z,0
2016-11-02T21:59:15.199Z,0
2016-11-02T22:04:19.653Z,0
2016-11-02T22:09:24.110Z,0
2016-11-02T22:14:28.543Z,0
2016-11-02T22:19:32.640Z,0
2016-11-02T22:24:37.409Z,0
2016-11-02T22:29:41.836Z,0
2016-11-02T22:34:46.596Z,0
2016-11-02T22:39:51.035Z,0
2016-11-02T22:44:55.805Z,0
2016-11-02T22:50:00.229Z,0
2016-11-02T22:55:04.330Z,0
2016-11-02T23:00:08.431Z,0
2016-11-02T23:05:12.854Z,0
2016-11-02T23:10:17.285Z,0
2016-11-02T23:15:21.379Z,0
2016-11-02T23:20:25.806Z,0
2016-11-02T23:25:30.568Z,0
2016-11-02T23:30:34.665Z,0
2016-11-02T23:35:39.096Z,0
2016-11-02T23:40:43.520Z,0
2016-11-02T23:45:47.607Z,0
2016-11-02T23:50:51.701Z,0
2016-11-02T23:55:55.798Z,0
